Time;durP1;ratioP1;P1;durP2;ratioP2;P2;SDS_P1;SDS_P2;PMS_P1;PMS_P2;Temp;Humidity;BMP_temperature;BMP_pressure;BME280_temperature;BME280_humidity;BME280_pressure;Samples;Min_cycle;Max_cycle;Signal;HPM_P1;HPM_P2
2021/10/24 00:00:25;;;;;;;10.10;5.75;;;;;;;1.70;100.00;96861.97;1022973;28;20091;-69
2021/10/24 00:00:55;;;;;;;12.88;5.40;;;;;;;1.71;100.00;96866.19;1023229;28;20548;-70
2021/10/24 00:01:29;;;;;;;9.40;5.78;;;;;;;1.70;100.00;96861.97;1034919;28;20470;-70
2021/10/24 00:01:59;;;;;;;11.23;5.95;;;;;;;1.73;100.00;96859.03;1035565;28;20030;-70
2021/10/24 00:02:30;;;;;;;10.13;5.88;;;;;;;1.74;100.00;96860.63;1038939;28;20112;-70
2021/10/24 00:03:01;;;;;;;9.23;5.97;;;;;;;1.75;100.00;96864.03;1035277;28;20026;-69
2021/10/24 00:03:31;;;;;;;10.65;5.82;;;;;;;1.73;100.00;96853.84;1039128;28;20022;-70
2021/10/24 00:04:02;;;;;;;9.30;5.88;;;;;;;1.82;100.00;96860.56;1034965;28;20370;-71
2021/10/24 00:04:33;;;;;;;13.05;6.07;;;;;;;1.81;100.00;96856.38;1035288;28;20082;-70
2021/10/24 00:05:06;;;;;;;9.18;5.72;;;;;;;1.87;100.00;96860.00;1023024;29;20031;-70
2021/10/24 00:05:36;;;;;;;10.28;5.90;;;;;;;1.86;100.00;96863.59;1024184;28;20050;-69
2021/10/24 00:06:07;;;;;;;9.07;5.20;;;;;;;1.84;100.00;96850.00;1031142;28;20600;-69
2021/10/24 00:06:37;;;;;;;10.90;5.22;;;;;;;1.89;100.00;96858.06;1023683;28;20213;-70
2021/10/24 00:07:08;;;;;;;12.68;5.57;;;;;;;1.91;100.00;96858.66;1027421;28;20042;-70
2021/10/24 00:07:38;;;;;;;11.55;5.78;;;;;;;1.91;100.00;96856.06;1027039;28;20022;-69
2021/10/24 00:08:09;;;;;;;9.73;5.63;;;;;;;1.91;100.00;96856.06;1026836;28;20030;-70
2021/10/24 00:08:39;;;;;;;13.50;5.72;;;;;;;1.87;100.00;96855.63;1027384;28;20015;-69
2021/10/24 00:09:10;;;;;;;12.95;5.72;;;;;;;1.80;100.00;96846.19;1027048;28;20428;-70
2021/10/24 00:09:40;;;;;;;11.60;5.82;;;;;;;1.91;100.00;96856.06;1023380;28;20027;-71
2021/10/24 00:10:10;;;;;;;13.77;5.97;;;;;;;1.95;100.00;96862.50;1031433;28;20018;-71
2021/10/24 00:10:41;;;;;;;11.25;5.30;;;;;;;1.92;100.00;96856.91;1027252;28;20041;-70
2021/10/24 00:11:12;;;;;;;12.88;5.70;;;;;;;1.96;100.00;96858.94;1027433;28;20091;-70
2021/10/24 00:11:42;;;;;;;7.53;5.93;;;;;;;1.94;100.00;96863.47;1027048;28;20034;-69
2021/10/24 00:12:13;;;;;;;8.77;6.10;;;;;;;1.91;100.00;96856.06;1023288;28;20023;-71
2021/10/24 00:12:43;;;;;;;16.52;5.47;;;;;;;1.92;100.00;96857.69;1023435;29;20027;-70
2021/10/24 00:13:13;;;;;;;11.82;5.53;;;;;;;1.91;100.00;96863.84;1023147;29;20020;-70
2021/10/24 00:13:44;;;;;;;10.10;5.97;;;;;;;1.93;100.00;96861.09;1023407;29;20086;-70
2021/10/24 00:14:14;;;;;;;9.65;5.32;;;;;;;1.91;100.00;96853.47;1023773;28;20019;-70
2021/10/24 00:14:45;;;;;;;10.43;6.10;;;;;;;1.88;100.00;96856.47;1027421;28;20249;-70
2021/10/24 00:15:15;;;;;;;8.23;5.90;;;;;;;1.89;100.00;96858.06;1031470;28;20052;-71
2021/10/24 00:15:46;;;;;;;9.43;4.80;;;;;;;1.87;100.00;96855.63;1027385;28;20011;-70
2021/10/24 00:16:16;;;;;;;9.90;5.63;;;;;;;1.89;100.00;96863.22;1031433;28;20109;-70
2021/10/24 00:16:47;;;;;;;10.02;5.57;;;;;;;1.92;100.00;96856.91;1031703;28;20120;-70
2021/10/24 00:17:18;;;;;;;11.52;5.88;;;;;;;1.82;100.00;96847.63;1031217;28;20030;-70
2021/10/24 00:17:48;;;;;;;12.90;5.58;;;;;;;1.92;100.00;96862.88;1027101;28;20029;-70
2021/10/24 00:18:19;;;;;;;8.45;5.18;;;;;;;1.92;100.00;96862.88;1031586;28;20025;-70
2021/10/24 00:18:49;;;;;;;8.77;5.53;;;;;;;1.91;100.00;96856.06;1027350;28;20068;-71
2021/10/24 00:19:20;;;;;;;11.82;4.75;;;;;;;1.91;100.00;96855.28;1027633;28;20023;-70
2021/10/24 00:19:50;;;;;;;8.43;5.53;;;;;;;1.89;100.00;96855.47;1031365;28;20054;-70
2021/10/24 00:20:20;;;;;;;10.93;5.10;;;;;;;1.89;100.00;96865.81;1035483;28;20010;-70
2021/10/24 00:20:51;;;;;;;11.15;5.60;;;;;;;1.85;100.00;96851.63;1039635;28;20060;-70
2021/10/24 00:21:21;;;;;;;9.85;5.65;;;;;;;1.82;100.00;96857.16;1031261;28;20504;-70
2021/10/24 00:21:52;;;;;;;15.73;5.35;;;;;;;1.87;100.00;96857.41;1027337;28;20575;-70
2021/10/24 00:22:22;;;;;;;10.73;5.82;;;;;;;1.85;100.00;96855.03;1027564;28;20569;-70
2021/10/24 00:22:53;;;;;;;11.20;5.85;;;;;;;1.78;100.00;96846.38;1023425;28;20023;-71
2021/10/24 00:23:23;;;;;;;8.60;4.95;;;;;;;1.77;100.00;96844.75;1027515;28;20041;-70
2021/10/24 00:23:54;;;;;;;14.20;6.13;;;;;;;1.83;100.00;96853.59;1027420;28;20023;-70
2021/10/24 00:24:25;;;;;;;11.73;6.00;;;;;;;1.83;100.00;96858.78;1027365;28;20015;-70
2021/10/24 00:24:55;;;;;;;10.05;5.38;;;;;;;1.82;100.00;96863.16;1027960;28;20408;-70
2021/10/24 00:25:26;;;;;;;12.82;5.68;;;;;;;1.82;100.00;96855.38;1031484;28;20253;-70
2021/10/24 00:25:57;;;;;;;11.90;5.78;;;;;;;1.84;100.00;96850.00;1031297;28;20046;-69
2021/10/24 00:26:27;;;;;;;12.90;5.55;;;;;;;1.76;100.00;96842.34;1028128;28;20031;-69
2021/10/24 00:26:58;;;;;;;9.70;4.70;;;;;;;1.76;100.00;96839.78;1031402;28;20249;-71
2021/10/24 00:27:28;;;;;;;16.83;6.00;;;;;;;1.81;100.00;96851.19;1023494;28;20015;-70
2021/10/24 00:27:59;;;;;;;12.90;5.80;;;;;;;1.80;100.00;96851.38;1022696;28;20524;-69
2021/10/24 00:28:29;;;;;;;14.88;5.93;;;;;;;1.78;100.00;96853.34;1023585;28;20026;-70
2021/10/24 00:29:00;;;;;;;11.68;6.13;;;;;;;1.80;100.00;96851.38;1023678;28;20657;-69
2021/10/24 00:29:30;;;;;;;14.60;5.95;;;;;;;1.78;100.00;96845.59;1023253;28;20011;-70
2021/10/24 00:30:01;;;;;;;12.85;6.05;;;;;;;1.81;100.00;96848.63;1023259;29;20027;-69
2021/10/24 00:30:31;;;;;;;11.07;5.90;;;;;;;1.81;100.00;96855.53;1023758;28;20011;-69
2021/10/24 00:31:02;;;;;;;15.90;5.85;;;;;;;1.78;100.00;96853.34;1035335;28;20026;-70
2021/10/24 00:31:32;;;;;;;9.55;5.70;;;;;;;1.75;100.00;96851.91;1035443;28;20060;-70
2021/10/24 00:32:04;;;;;;;11.48;6.35;;;;;;;1.77;100.00;96849.13;1027469;28;20413;-69
2021/10/24 00:32:34;;;;;;;10.72;6.34;;;;;;;1.75;100.00;96851.13;1027462;28;20384;-70
2021/10/24 00:33:05;;;;;;;11.25;5.95;;;;;;;1.71;100.00;96845.50;1028139;28;20050;-69
2021/10/24 00:33:35;;;;;;;9.50;5.78;;;;;;;1.75;100.00;96851.13;1039630;28;20013;-70
2021/10/24 00:34:06;;;;;;;13.77;6.22;;;;;;;1.73;100.00;96848.69;1040131;28;20025;-70
2021/10/24 00:34:36;;;;;;;10.10;5.82;;;;;;;1.72;100.00;96847.09;1036145;28;20026;-70
2021/10/24 00:35:07;;;;;;;9.95;5.85;;;;;;;1.74;100.00;96849.47;1035551;28;20423;-70
2021/10/24 00:35:37;;;;;;;13.98;6.43;;;;;;;1.71;100.00;96845.50;1031681;28;20026;-70
2021/10/24 00:36:08;;;;;;;15.35;5.90;;;;;;;1.73;100.00;96850.47;1031694;28;20034;-71
2021/10/24 00:36:39;;;;;;;14.54;6.10;;;;;;;1.72;100.00;96852.25;1031455;28;20030;-70
2021/10/24 00:37:09;;;;;;;12.43;5.80;;;;;;;1.73;100.00;96848.69;1031749;28;20023;-70
2021/10/24 00:37:40;;;;;;;23.63;6.05;;;;;;;1.73;100.00;96842.72;1035168;28;20030;-69
2021/10/24 00:38:11;;;;;;;17.02;6.15;;;;;;;1.70;100.00;96843.06;1039187;28;20498;-70
2021/10/24 00:38:41;;;;;;;11.02;5.97;;;;;;;1.68;100.00;96842.44;1031428;28;20468;-70
2021/10/24 00:39:12;;;;;;;10.57;5.70;;;;;;;1.68;100.00;96848.44;1031332;28;20018;-70
2021/10/24 00:39:42;;;;;;;14.77;6.47;;;;;;;1.66;100.00;96842.63;1023255;28;20019;-70
2021/10/24 00:40:13;;;;;;;10.23;5.65;;;;;;;1.65;100.00;96839.25;1026661;28;20021;-70
2021/10/24 00:40:43;;;;;;;15.60;6.05;;;;;;;1.63;100.00;96840.41;1029872;28;20045;-70
2021/10/24 00:41:14;;;;;;;12.57;6.22;;;;;;;1.58;100.00;96837.56;1027590;28;20580;-71
2021/10/24 00:41:45;;;;;;;21.35;6.80;;;;;;;1.54;100.00;96834.53;1027517;28;20027;-70
2021/10/24 00:42:15;;;;;;;14.12;6.24;;;;;;;1.59;100.00;96845.13;1027228;28;20492;-69
2021/10/24 00:42:50;;;;;;;15.98;5.75;;;;;;;1.62;100.00;96843.97;1027713;28;20019;-70
2021/10/24 00:43:21;;;;;;;19.44;6.48;;;;;;;1.59;100.00;96842.53;1032087;28;20097;-70
2021/10/24 00:43:51;;;;;;;12.40;5.78;;;;;;;1.56;100.00;96836.91;1032262;28;20045;-70
2021/10/24 00:44:26;;;;;;;16.48;6.63;;;;;;;1.56;100.00;96848.06;1031353;28;20097;-70
2021/10/24 00:44:56;;;;;;;9.96;5.36;;;;;;;1.49;100.00;96826.47;1027996;28;20054;-70
2021/10/24 00:45:27;;;;;;;12.70;5.68;;;;;;;1.55;100.00;96843.88;1024309;28;20103;-71
2021/10/24 00:45:57;;;;;;;11.27;6.15;;;;;;;1.55;100.00;96846.47;1019866;29;20071;-70
2021/10/24 00:46:28;;;;;;;11.95;5.95;;;;;;;1.54;100.00;96831.94;1020506;28;20015;-70
2021/10/24 00:46:59;;;;;;;12.48;6.15;;;;;;;1.60;100.00;96849.31;1023640;28;20050;-70
2021/10/24 00:47:30;;;;;;;10.58;5.12;;;;;;;1.59;100.00;96834.78;1027672;28;20022;-70
2021/10/24 00:48:01;;;;;;;13.18;5.85;;;;;;;1.59;100.00;96833.97;1034811;28;20087;-69
2021/10/24 00:48:31;;;;;;;12.20;5.80;;;;;;;1.58;100.00;96840.13;1035647;28;20021;-70
2021/10/24 00:49:02;;;;;;;11.27;5.55;;;;;;;1.59;100.00;96839.16;1035378;28;20053;-71
2021/10/24 00:49:33;;;;;;;10.52;5.75;;;;;;;1.59;100.00;96841.75;1039850;28;20009;-70
2021/10/24 00:50:04;;;;;;;19.38;6.18;;;;;;;1.56;100.00;96835.13;1035276;28;20025;-70
2021/10/24 00:50:35;;;;;;;10.18;5.53;;;;;;;1.54;100.00;96838.88;1035304;28;20554;-69
2021/10/24 00:51:07;;;;;;;9.54;5.24;;;;;;;1.54;100.00;96831.09;1035851;28;20034;-70
2021/10/24 00:51:37;;;;;;;10.18;5.60;;;;;;;1.54;100.00;96837.09;1031640;28;20102;-70
2021/10/24 00:52:08;;;;;;;9.25;5.45;;;;;;;1.51;100.00;96823.69;1027661;28;20543;-69
2021/10/24 00:52:39;;;;;;;11.60;5.68;;;;;;;1.56;100.00;96832.53;1023216;29;20023;-70
2021/10/24 00:53:10;;;;;;;8.62;5.44;;;;;;;1.57;100.00;96833.34;1023656;28;20019;-69
2021/10/24 00:53:41;;;;;;;6.50;5.10;;;;;;;1.51;100.00;96819.38;1027964;28;20122;-70
2021/10/24 00:54:12;;;;;;;12.07;5.82;;;;;;;1.50;100.00;96822.91;1027303;28;20423;-70
2021/10/24 00:54:43;;;;;;;11.94;5.96;;;;;;;1.49;100.00;96815.34;1027163;28;20033;-70
2021/10/24 00:55:13;;;;;;;12.48;5.75;;;;;;;1.58;100.00;96833.19;1019648;29;20107;-70
2021/10/24 00:55:44;;;;;;;12.07;5.40;;;;;;;1.57;100.00;96833.34;1023447;29;20011;-69
2021/10/24 00:56:15;;;;;;;9.57;5.38;;;;;;;1.42;100.00;96804.91;1031319;28;20010;-69
2021/10/24 00:56:46;;;;;;;10.38;5.50;;;;;;;1.57;100.00;96830.75;1031087;28;20011;-70
2021/10/24 00:57:17;;;;;;;11.78;5.22;;;;;;;1.52;100.00;96818.38;1035273;28;20036;-70
2021/10/24 00:57:47;;;;;;;10.10;4.95;;;;;;;1.54;100.00;96823.34;1031220;28;20073;-70
2021/10/24 00:58:18;;;;;;;14.02;6.13;;;;;;;1.60;100.00;96828.63;1035177;28;20022;-70
2021/10/24 00:58:50;;;;;;;8.48;5.13;;;;;;;1.53;100.00;96817.38;1031201;28;20019;-71
2021/10/24 00:59:21;;;;;;;9.96;5.88;;;;;;;1.56;100.00;96829.16;1028102;28;20030;-70
2021/10/24 00:59:52;;;;;;;12.02;6.10;;;;;;;1.55;100.00;96825.78;1031351;28;20025;-70
2021/10/24 01:00:25;;;;;;;13.73;5.95;;;;;;;1.52;100.00;96826.13;1031812;28;20019;-70
2021/10/24 01:00:55;;;;;;;13.74;5.28;;;;;;;1.53;100.00;96827.72;1031041;28;20025;-70
2021/10/24 01:01:26;;;;;;;12.55;5.72;;;;;;;1.44;100.00;96818.44;1031776;28;20637;-71
2021/10/24 01:01:56;;;;;;;13.55;5.60;;;;;;;1.49;100.00;96821.31;1027767;28;20019;-70
2021/10/24 01:02:27;;;;;;;12.10;5.20;;;;;;;1.52;100.00;96826.13;1031361;28;20019;-70
2021/10/24 01:02:57;;;;;;;10.70;4.95;;;;;;;1.56;100.00;96826.56;1027097;28;20516;-70
2021/10/24 01:03:28;;;;;;;13.48;5.20;;;;;;;1.56;100.00;96827.38;1023680;28;20425;-68
2021/10/24 01:03:59;;;;;;;7.50;5.05;;;;;;;1.57;100.00;96823.78;1027231;28;20025;-70
2021/10/24 01:04:30;;;;;;;8.56;4.98;;;;;;;1.58;100.00;96830.59;1027918;28;20014;-70
2021/10/24 01:05:02;;;;;;;12.92;5.28;;;;;;;1.53;100.00;96819.97;1035450;28;20843;-70
2021/10/24 01:05:34;;;;;;;10.96;5.18;;;;;;;1.54;100.00;96823.34;1031650;28;20494;-70
2021/10/24 01:06:05;;;;;;;17.58;6.10;;;;;;;1.55;100.00;96825.78;1027066;28;20018;-70
2021/10/24 01:06:36;;;;;;;11.38;5.35;;;;;;;1.60;100.00;96830.41;1022565;29;20485;-70
2021/10/24 01:07:07;;;;;;;13.38;5.08;;;;;;;1.52;100.00;96818.38;1023329;29;20034;-70
2021/10/24 01:07:38;;;;;;;11.13;4.90;;;;;;;1.55;100.00;96820.59;1023315;29;20070;-70
2021/10/24 01:08:09;;;;;;;13.04;5.36;;;;;;;1.54;100.00;96823.34;1023451;28;20015;-70
2021/10/24 01:08:40;;;;;;;10.02;4.88;;;;;;;1.49;100.00;96813.56;1024179;28;20015;-70
2021/10/24 01:09:14;;;;;;;8.90;5.35;;;;;;;1.48;100.00;96814.53;1027817;28;20010;-70
2021/10/24 01:09:44;;;;;;;8.44;5.56;;;;;;;1.49;100.00;96821.31;1027272;28;20046;-70
2021/10/24 01:10:16;;;;;;;13.98;6.47;;;;;;;1.40;100.00;96804.28;1027464;28;20527;-70
2021/10/24 01:10:46;;;;;;;9.10;5.60;;;;;;;1.40;100.00;96804.28;1027160;28;20493;-69
2021/10/24 01:11:17;;;;;;;7.90;4.97;;;;;;;1.40;100.00;96806.84;1027295;28;20077;-69
2021/10/24 01:11:48;;;;;;;11.65;4.93;;;;;;;1.39;100.00;96797.50;1023464;28;20544;-70
2021/10/24 01:12:19;;;;;;;14.88;5.80;;;;;;;1.44;100.00;96813.28;1023521;28;20022;-70
2021/10/24 01:12:50;;;;;;;10.15;5.65;;;;;;;1.35;100.00;96802.22;1023755;28;20058;-71
2021/10/24 01:13:20;;;;;;;13.38;5.90;;;;;;;1.41;100.00;96811.06;1027043;28;20376;-70
2021/10/24 01:13:50;;;;;;;14.38;5.57;;;;;;;1.34;100.00;96797.22;1031158;28;20086;-71
2021/10/24 01:14:21;;;;;;;8.63;5.03;;;;;;;1.41;100.00;96811.06;1031485;28;20033;-69
2021/10/24 01:14:51;;;;;;;9.35;5.22;;;;;;;1.39;100.00;96813.00;1023290;28;20047;-71
2021/10/24 01:15:22;;;;;;;10.05;5.07;;;;;;;1.38;100.00;96809.63;1027378;28;20023;-70
2021/10/24 01:16:16;;;;;;;11.75;5.10;;;;;;;1.43;100.00;96811.69;1027271;28;20413;-70
2021/10/24 01:16:46;;;;;;;9.46;4.78;;;;;;;1.43;100.00;96791.00;1023450;29;20015;-70
2021/10/24 01:17:17;;;;;;;5.82;4.68;;;;;;;1.46;100.00;96806.16;1022307;29;20015;-70
2021/10/24 01:17:48;;;;;;;9.95;4.80;;;;;;;1.49;100.00;96815.34;1022534;29;20114;-70
2021/10/24 01:18:18;;;;;;;10.05;5.32;;;;;;;1.50;100.00;96807.38;1023283;29;20030;-70
2021/10/24 01:18:49;;;;;;;12.77;6.07;;;;;;;1.52;100.00;96805.44;1019212;29;20016;-71
2021/10/24 01:19:21;;;;;;;11.55;6.05;;;;;;;1.49;100.00;96805.78;1019295;28;20099;-70
2021/10/24 01:19:51;;;;;;;9.14;4.94;;;;;;;1.49;100.00;96805.78;1023788;28;20019;-71
2021/10/24 01:20:23;;;;;;;15.07;5.65;;;;;;;1.42;100.00;96797.16;1023599;28;20038;-70
2021/10/24 01:20:54;;;;;;;16.90;5.70;;;;;;;1.49;100.00;96803.22;1019526;29;20020;-70
2021/10/24 01:21:24;;;;;;;10.93;5.38;;;;;;;1.49;100.00;96800.63;1019488;29;20024;-70
2021/10/24 01:21:55;;;;;;;8.40;5.07;;;;;;;1.44;100.00;96794.38;1019617;28;20111;-69
2021/10/24 01:22:26;;;;;;;9.15;5.20;;;;;;;1.47;100.00;96802.56;1027853;28;20030;-70
2021/10/24 01:22:57;;;;;;;7.24;4.82;;;;;;;1.46;100.00;96803.56;1035344;28;20689;-71
2021/10/24 01:23:27;;;;;;;10.93;5.03;;;;;;;1.45;100.00;96801.97;1031341;28;20079;-70
2021/10/24 01:23:57;;;;;;;9.93;5.10;;;;;;;1.47;100.00;96801.78;1035305;28;20018;-70
2021/10/24 01:24:29;;;;;;;12.15;5.00;;;;;;;1.41;100.00;96798.94;1031378;28;20014;-70
2021/10/24 01:24:59;;;;;;;13.24;5.30;;;;;;;1.49;100.00;96810.97;1031508;28;20093;-71
2021/10/24 01:25:29;;;;;;;9.18;5.45;;;;;;;1.48;100.00;96805.97;1035357;28;20499;-69
2021/10/24 01:26:00;;;;;;;10.43;5.03;;;;;;;1.47;100.00;96807.75;1035179;28;20549;-69
2021/10/24 01:26:33;;;;;;;10.23;5.45;;;;;;;1.50;100.00;96801.41;1031506;28;20010;-70
2021/10/24 01:27:04;;;;;;;12.86;5.30;;;;;;;1.50;100.00;96809.19;1031045;28;20023;-70
2021/10/24 01:27:35;;;;;;;9.68;5.03;;;;;;;1.49;100.00;96805.00;1023092;29;20099;-70
2021/10/24 01:28:08;;;;;;;11.88;5.12;;;;;;;1.38;100.00;96793.31;1026526;28;20026;-69
2021/10/24 01:28:38;;;;;;;10.74;5.32;;;;;;;1.46;100.00;96803.56;1027110;28;20014;-70
2021/10/24 01:29:10;;;;;;;9.65;5.43;;;;;;;1.38;100.00;96793.31;1023318;29;20024;-69
2021/10/24 01:29:40;;;;;;;9.86;4.94;;;;;;;1.41;100.00;96796.34;1023130;29;20026;-72
2021/10/24 01:30:10;;;;;;;10.65;6.10;;;;;;;1.40;100.00;96799.09;1018963;29;20031;-70
2021/10/24 01:30:41;;;;;;;9.88;5.85;;;;;;;1.40;100.00;96805.06;1019534;29;20028;-70
2021/10/24 01:31:11;;;;;;;9.82;5.03;;;;;;;1.37;100.00;96802.84;1027264;28;20077;-70
2021/10/24 01:31:42;;;;;;;9.43;5.63;;;;;;;1.39;100.00;96806.06;1027390;28;20038;-69
2021/10/24 01:32:12;;;;;;;11.38;5.40;;;;;;;1.37;100.00;96802.03;1031090;28;20033;-70
2021/10/24 01:32:43;;;;;;;10.20;5.78;;;;;;;1.38;100.00;96801.06;1031220;28;20029;-70
2021/10/24 01:33:13;;;;;;;11.57;5.45;;;;;;;1.36;100.00;96805.59;1033083;28;20030;-70
2021/10/24 01:33:44;;;;;;;13.35;5.55;;;;;;;1.35;100.00;96796.25;1035281;28;20495;-70
2021/10/24 01:34:14;;;;;;;17.17;6.22;;;;;;;1.34;100.00;96803.22;1026837;28;20085;-70
2021/10/24 01:34:48;;;;;;;8.80;5.22;;;;;;;1.31;100.00;96798.41;1023521;28;20058;-70
2021/10/24 01:35:18;;;;;;;12.04;5.86;;;;;;;1.28;100.00;96803.13;1026966;28;20034;-70
2021/10/24 01:35:56;;;;;;;13.02;5.82;;;;;;;1.33;100.00;96808.56;1027406;28;20022;-70
2021/10/24 01:36:26;;;;;;;11.00;5.96;;;;;;;1.37;100.00;96802.03;1026938;28;20027;-70
2021/10/24 01:36:56;;;;;;;11.05;5.63;;;;;;;1.36;100.00;96803.03;1026977;28;20018;-70
2021/10/24 01:37:34;;;;;;;12.00;5.38;;;;;;;1.34;100.00;96792.03;1027470;28;20476;-69
2021/10/24 01:38:04;;;;;;;13.14;6.84;;;;;;;1.35;100.00;96806.59;1031496;28;20535;-70
2021/10/24 01:38:35;;;;;;;9.45;5.75;;;;;;;1.32;100.00;96801.78;1032167;28;20038;-70
2021/10/24 01:39:05;;;;;;;12.27;5.95;;;;;;;1.34;100.00;96802.38;1028284;28;20180;-70
2021/10/24 01:39:36;;;;;;;13.68;5.68;;;;;;;1.32;100.00;96800.00;1031084;28;20033;-70
2021/10/24 01:40:08;;;;;;;10.82;6.35;;;;;;;1.27;100.00;96796.31;1027632;28;20093;-70
2021/10/24 01:40:39;;;;;;;12.92;5.84;;;;;;;1.29;100.00;96805.53;1027356;28;20097;-69
2021/10/24 01:41:10;;;;;;;10.00;5.68;;;;;;;1.31;100.00;96802.78;1027087;28;20034;-69
2021/10/24 01:41:40;;;;;;;10.80;6.22;;;;;;;1.30;100.00;96803.72;1028282;28;20141;-70
2021/10/24 01:42:11;;;;;;;15.63;6.90;;;;;;;1.28;100.00;96792.78;1027187;28;20539;-70
2021/10/24 01:42:52;;;;;;;14.60;5.97;;;;;;;1.18;100.00;96787.88;1023414;28;20055;-69
2021/10/24 01:43:23;;;;;;;10.02;5.88;;;;;;;1.17;100.00;96784.50;1019158;29;20016;-70
2021/10/24 01:43:53;;;;;;;9.96;5.96;;;;;;;1.18;100.00;96790.47;1019142;29;20102;-70
2021/10/24 01:44:25;;;;;;;12.55;5.90;;;;;;;1.20;100.00;96800.59;1027349;28;20575;-70
2021/10/24 01:44:55;;;;;;;11.38;6.08;;;;;;;1.17;100.00;96797.41;1026905;28;20477;-70
2021/10/24 01:45:27;;;;;;;12.30;6.38;;;;;;;1.17;100.00;96792.25;1027213;28;20027;-70
2021/10/24 01:45:58;;;;;;;13.22;6.50;;;;;;;1.15;100.00;96804.53;1033195;28;20403;-70
2021/10/24 01:46:28;;;;;;;15.95;6.47;;;;;;;1.14;100.00;96796.94;1037968;28;20028;-70
2021/10/24 01:46:59;;;;;;;12.90;6.35;;;;;;;1.14;100.00;96797.75;1043027;28;20025;-70
2021/10/24 01:47:29;;;;;;;11.77;6.43;;;;;;;1.11;100.00;96800.69;1034841;28;20024;-69
2021/10/24 01:48:00;;;;;;;19.08;6.50;;;;;;;1.10;100.00;96795.69;1029232;28;20049;-69
2021/10/24 01:48:30;;;;;;;20.02;7.35;;;;;;;1.03;100.00;96789.63;1031011;28;20018;-70
2021/10/24 01:49:00;;;;;;;11.77;6.35;;;;;;;1.08;100.00;96795.06;1030744;28;20026;-69
2021/10/24 01:49:31;;;;;;;11.18;6.38;;;;;;;1.09;100.00;96797.47;1031155;28;20026;-70
2021/10/24 01:50:01;;;;;;;14.75;6.50;;;;;;;1.06;100.00;96797.03;1030862;28;20088;-71
2021/10/24 01:50:32;;;;;;;11.65;6.30;;;;;;;1.04;100.00;96801.56;1035053;28;20487;-68
2021/10/24 01:51:03;;;;;;;13.73;6.30;;;;;;;1.05;100.00;96795.44;1034913;28;20380;-71
2021/10/24 01:51:33;;;;;;;14.63;6.50;;;;;;;1.03;100.00;96795.59;1038940;28;20029;-70
2021/10/24 01:52:04;;;;;;;14.68;6.55;;;;;;;1.04;100.00;96792.03;1039079;28;20017;-70
2021/10/24 01:52:39;;;;;;;13.52;6.50;;;;;;;1.07;100.00;96799.41;1031230;28;20031;-69
2021/10/24 01:53:11;;;;;;;12.74;5.92;;;;;;;1.06;100.00;96795.25;1034632;28;20065;-70
2021/10/24 01:53:42;;;;;;;11.60;6.58;;;;;;;1.00;100.00;96780.44;1035102;28;20034;-70
2021/10/24 01:54:12;;;;;;;11.06;6.30;;;;;;;1.09;100.00;96794.88;1032849;28;20031;-70
2021/10/24 01:54:43;;;;;;;12.75;6.40;;;;;;;1.04;100.00;96783.47;1034919;28;20025;-69
2021/10/24 01:55:14;;;;;;;12.70;6.57;;;;;;;1.11;100.00;96786.97;1034902;28;20018;-70
2021/10/24 01:55:44;;;;;;;9.88;5.78;;;;;;;1.09;100.00;96794.88;1030851;28;20026;-71
2021/10/24 01:56:15;;;;;;;10.35;6.25;;;;;;;1.12;100.00;96794.53;1022943;28;20513;-69
2021/10/24 01:56:45;;;;;;;12.73;6.18;;;;;;;1.12;100.00;96793.75;1027159;28;20018;-70
2021/10/24 01:57:16;;;;;;;20.40;6.65;;;;;;;1.14;100.00;96791.75;1026587;28;20588;-69
2021/10/24 01:57:51;;;;;;;17.22;6.56;;;;;;;1.07;100.00;96781.34;1026863;28;20018;-69
2021/10/24 01:58:21;;;;;;;18.20;7.18;;;;;;;0.90;100.00;96764.38;1031428;28;20593;-71
2021/10/24 01:58:52;;;;;;;10.40;5.80;;;;;;;1.12;100.00;96788.56;1035503;28;20085;-69
2021/10/24 01:59:23;;;;;;;12.04;6.62;;;;;;;1.10;100.00;96791.31;1035256;28;20030;-70
2021/10/24 01:59:53;;;;;;;10.05;6.70;;;;;;;1.09;100.00;96791.50;1038869;28;20025;-70
2021/10/24 02:00:24;;;;;;;9.93;6.22;;;;;;;1.08;100.00;96787.31;1035149;28;20443;-70
2021/10/24 02:00:54;;;;;;;10.70;5.78;;;;;;;1.04;100.00;96776.53;1026684;28;20677;-70
2021/10/24 02:01:25;;;;;;;10.70;6.40;;;;;;;1.14;100.00;96790.00;1026727;28;20066;-69
2021/10/24 02:01:55;;;;;;;11.23;6.45;;;;;;;1.06;100.00;96781.53;1026915;28;20521;-69
2021/10/24 02:02:26;;;;;;;10.75;6.28;;;;;;;1.13;100.00;96800.50;1022946;28;20082;-69
2021/10/24 02:02:56;;;;;;;14.98;6.80;;;;;;;1.11;100.00;96787.78;1026868;28;20023;-69
2021/10/24 02:03:27;;;;;;;9.15;5.65;;;;;;;1.04;100.00;96776.53;1027051;28;20019;-69
2021/10/24 02:03:57;;;;;;;11.35;6.18;;;;;;;1.12;100.00;96786.78;1030632;28;20156;-71
2021/10/24 02:04:28;;;;;;;11.65;5.90;;;;;;;1.11;100.00;96787.78;1034800;28;20385;-70
2021/10/24 02:04:58;;;;;;;12.82;6.50;;;;;;;1.05;100.00;96780.72;1035110;28;20018;-70
2021/10/24 02:05:29;;;;;;;14.45;7.07;;;;;;;1.11;100.00;96790.34;1030605;28;20022;-70
2021/10/24 02:06:00;;;;;;;13.48;6.40;;;;;;;1.10;100.00;96795.69;1023198;28;20490;-70
2021/10/24 02:06:30;;;;;;;10.56;6.60;;;;;;;1.08;100.00;96787.31;1026849;28;20106;-70
2021/10/24 02:07:01;;;;;;;16.33;6.70;;;;;;;1.06;100.00;96787.50;1022960;28;20794;-70
2021/10/24 02:07:31;;;;;;;14.75;6.93;;;;;;;1.04;100.00;96786.88;1027246;28;20022;-71
2021/10/24 02:08:02;;;;;;;10.57;6.38;;;;;;;1.05;100.00;96782.50;1030074;28;20077;-70
2021/10/24 02:08:32;;;;;;;21.30;8.40;;;;;;;0.99;100.00;96773.66;1026781;28;20025;-70
2021/10/24 02:09:03;;;;;;;16.88;7.38;;;;;;;1.04;100.00;96781.72;1026924;28;20134;-70
2021/10/24 02:09:33;;;;;;;11.38;6.40;;;;;;;1.07;100.00;96785.69;1027200;28;20022;-70
2021/10/24 02:10:05;;;;;;;10.60;6.65;;;;;;;1.06;100.00;96790.06;1028230;28;20054;-69
2021/10/24 02:10:36;;;;;;;12.16;6.60;;;;;;;1.06;100.00;96777.16;1028100;28;20030;-70
2021/10/24 02:11:06;;;;;;;13.75;6.90;;;;;;;0.98;100.00;96774.66;1030344;28;20096;-70
2021/10/24 02:11:37;;;;;;;10.30;6.28;;;;;;;1.03;100.00;96782.66;1029534;28;20033;-70
2021/10/24 02:12:07;;;;;;;13.05;6.75;;;;;;;1.02;100.00;96775.09;1030703;28;20117;-70
2021/10/24 02:12:37;;;;;;;11.45;6.53;;;;;;;1.03;100.00;96772.34;1030782;28;20019;-70
2021/10/24 02:13:08;;;;;;;12.60;6.60;;;;;;;1.04;100.00;96776.53;1027161;28;20034;-70
2021/10/24 02:13:38;;;;;;;12.40;7.07;;;;;;;1.06;100.00;96777.16;1026544;28;20516;-70
2021/10/24 02:14:09;;;;;;;13.38;6.50;;;;;;;0.97;100.00;96759.31;1027112;28;20885;-70
2021/10/24 02:14:39;;;;;;;12.75;6.28;;;;;;;1.02;100.00;96772.53;1026737;28;20026;-70
2021/10/24 02:15:10;;;;;;;11.00;6.70;;;;;;;1.10;100.00;96775.00;1030977;28;20088;-69
2021/10/24 02:15:41;;;;;;;16.17;6.40;;;;;;;1.06;100.00;96769.41;1034957;28;20041;-71
2021/10/24 02:16:11;;;;;;;10.05;6.43;;;;;;;1.07;100.00;96768.41;1031218;28;20316;-69
2021/10/24 02:16:42;;;;;;;11.10;6.88;;;;;;;1.13;100.00;96774.66;1034659;28;20535;-70
2021/10/24 02:17:12;;;;;;;10.85;6.22;;;;;;;1.13;100.00;96775.47;1039150;28;20059;-69
2021/10/24 02:17:43;;;;;;;7.28;6.15;;;;;;;1.12;100.00;96775.66;1042080;28;20021;-70
2021/10/24 02:18:13;;;;;;;10.95;6.18;;;;;;;1.13;100.00;96774.66;1043148;28;20021;-70
2021/10/24 02:18:44;;;;;;;10.82;6.50;;;;;;;1.11;100.00;96776.63;1042966;28;20406;-70
2021/10/24 02:19:14;;;;;;;13.45;7.45;;;;;;;1.11;100.00;96768.88;1038927;28;20030;-69
2021/10/24 02:19:44;;;;;;;15.88;6.70;;;;;;;0.90;100.00;96741.13;1039186;28;20060;-70
2021/10/24 02:20:15;;;;;;;11.98;6.60;;;;;;;1.14;100.00;96776.25;1038671;28;20022;-69
2021/10/24 02:20:46;;;;;;;16.52;6.32;;;;;;;1.11;100.00;96771.47;1034827;28;20682;-70
2021/10/24 02:21:17;;;;;;;21.92;7.30;;;;;;;1.11;100.00;96774.06;1031025;28;20038;-70
2021/10/24 02:21:47;;;;;;;11.32;6.72;;;;;;;1.10;100.00;96773.22;1030986;28;20080;-70
2021/10/24 02:22:17;;;;;;;13.07;6.43;;;;;;;1.00;100.00;96752.00;1035153;28;20026;-70
2021/10/24 02:22:48;;;;;;;11.55;6.10;;;;;;;1.01;100.00;96760.59;1035160;28;20022;-70
2021/10/24 02:23:18;;;;;;;10.63;6.63;;;;;;;1.03;100.00;96759.41;1038930;28;20064;-69
2021/10/24 02:23:49;;;;;;;14.98;6.63;;;;;;;1.10;100.00;96775.00;1039166;28;20017;-70
2021/10/24 02:24:19;;;;;;;12.48;5.95;;;;;;;1.04;100.00;96761.03;1039030;28;20543;-70